KPVD/PVD METAR and TAF weather

Enter ICAO airport designator
Station Type Date Time Source
KPVD METAR 2020/11/25 21:51 UTC NOAA

KPVD 252151Z 22008KT 10SM BKN042 OVC150 13/08 A3025 RMK AO2 SLP244 T01280078


Station Type Date Time Source
KPVD Decoded METAR 2020/11/25 21:51 UTC NOAA

PROVIDENCE GREEN STATE AIRPORT , RI, United States (KPVD) 41-44N 071-26W 16M
Nov 25, 2020 - 04:51 PM EST / 2020.11.25 2151 UTC
Wind: from the SW (220 degrees) at 9 MPH (8 KT):0
Visibility: 10 mile(s):0
Sky conditions: overcast
Temperature: 55.0 F (12.8 C)
Dew Point: 46.0 F (7.8 C)
Relative Humidity: 71%
Pressure (altimeter): 30.25 in. Hg (1024 hPa)
ob: KPVD 252151Z 22008KT 10SM BKN042 OVC150 13/08 A3025 RMK AO2 SLP244 T01280078
cycle: 22

Station Type Date Time Source
KPVD TAF 2020/11/25 18:36 UTC NOAA

TAF KPVD 251733Z 2518/2618 20005KT P6SM BKN045
FM252000 20007KT P6SM BKN070
FM260700 18003KT P6SM OVC040
FM260900 17003KT P6SM VCSH OVC030
FM261100 17005KT 5SM -SHRA BR OVC015
FM261300 17006KT 2SM SHRA BR OVC008

Example: see airport list